createdAt,value
2022-09-07T00:00:08.188Z,1.52
2022-09-07T00:05:08.667Z,3.65
2022-09-07T00:10:08.380Z,2.33
2022-09-07T00:15:08.067Z,2.70
2022-09-07T00:20:07.794Z,1.95
2022-09-07T00:25:08.491Z,2.15
2022-09-07T00:30:08.186Z,0.85
2022-09-07T00:35:07.868Z,2.50
2022-09-07T00:40:08.627Z,1.17
2022-09-07T00:45:08.310Z,2.05
2022-09-07T00:50:08.046Z,2.95
2022-09-07T00:55:07.743Z,2.33
2022-09-07T01:00:08.442Z,2.70
2022-09-07T01:05:09.624Z,2.92
2022-09-07T01:10:08.410Z,1.38
2022-09-07T01:15:08.103Z,1.00
2022-09-07T01:20:07.833Z,1.38
2022-09-07T01:25:08.511Z,1.08
2022-09-07T01:30:08.207Z,2.53
2022-09-07T01:35:07.915Z,1.45
2022-09-07T01:40:08.712Z,1.60
2022-09-07T01:45:08.439Z,2.08
2022-09-07T01:50:08.145Z,1.20
2022-09-07T01:55:07.841Z,2.40
2022-09-07T02:00:08.539Z,1.45
2022-09-07T02:05:08.224Z,1.77
2022-09-07T02:10:07.893Z,1.15
2022-09-07T02:15:08.560Z,1.25
2022-09-07T02:20:08.267Z,1.50
2022-09-07T02:25:07.923Z,2.10
2022-09-07T02:30:08.593Z,1.88
2022-09-07T02:35:08.314Z,2.22
2022-09-07T02:40:08.086Z,1.20
2022-09-07T02:45:07.801Z,2.45
2022-09-07T02:50:08.501Z,1.65
2022-09-07T02:55:18.178Z,0
2022-09-07T03:00:07.844Z,2.40
2022-09-07T03:05:08.533Z,2.40
2022-09-07T03:10:08.205Z,1.73
2022-09-07T03:15:07.895Z,2.05
2022-09-07T03:20:08.595Z,1.40
2022-09-07T03:25:08.298Z,3.08
2022-09-07T03:30:08.017Z,1.95
2022-09-07T03:35:07.700Z,2.70
2022-09-07T03:40:08.482Z,3.22
2022-09-07T03:45:08.262Z,2.85
2022-09-07T03:50:07.933Z,4.13
2022-09-07T03:55:08.622Z,4.00
2022-09-07T04:00:08.552Z,3.13
2022-09-07T04:05:02.317Z,3.42
2022-09-07T04:10:02.135Z,3.55
2022-09-07T04:15:01.988Z,4.50
2022-09-07T04:20:01.909Z,3.50
2022-09-07T04:25:02.809Z,6.40
2022-09-07T04:30:02.466Z,5.65
2022-09-07T04:35:02.452Z,5.80
2022-09-07T04:40:02.423Z,6.60
2022-09-07T04:45:02.361Z,5.22
2022-09-07T04:50:02.118Z,6.85
2022-09-07T04:55:02.016Z,6.15
2022-09-07T05:00:01.902Z,5.18
2022-09-07T05:05:03.066Z,5.57
2022-09-07T05:10:02.135Z,6.28
2022-09-07T05:15:02.039Z,6.22
2022-09-07T05:20:01.756Z,5.30
2022-09-07T05:25:02.941Z,8.18
2022-09-07T05:30:03.865Z,6.05
2022-09-07T05:35:01.753Z,5.25
2022-09-07T05:40:02.861Z,4.43
2022-09-07T05:45:02.664Z,4.53
2022-09-07T05:50:02.604Z,3.85
2022-09-07T05:55:19.627Z,4.25
2022-09-07T06:00:02.439Z,4.30
2022-09-07T06:05:02.197Z,6.13
2022-09-07T06:15:01.767Z,7.15
2022-09-07T06:20:02.602Z,5.40
2022-09-07T06:25:02.386Z,5.13
2022-09-07T06:30:02.139Z,5.15
2022-09-07T06:35:01.946Z,5.13
2022-09-07T06:40:01.777Z,4.80
2022-09-07T06:45:02.691Z,4.07
2022-09-07T06:50:02.516Z,6.50
2022-09-07T06:55:02.347Z,4.25
2022-09-07T07:00:02.533Z,5.65
2022-09-07T07:05:02.264Z,7.60
2022-09-07T07:10:02.027Z,5.00
2022-09-07T07:15:01.888Z,7.18
2022-09-07T07:20:02.802Z,6.65
2022-09-07T07:25:02.765Z,5.65
2022-09-07T07:30:02.658Z,4.82
2022-09-07T07:35:02.669Z,5.65
2022-09-07T07:40:19.969Z,4.55
2022-09-07T07:50:33.081Z,6.55
2022-09-07T07:55:42.502Z,6.93
2022-09-07T08:00:01.831Z,9.95
2022-09-07T08:05:02.584Z,9.75
2022-09-07T08:10:02.402Z,8.85
2022-09-07T08:15:02.208Z,9.32
2022-09-07T08:20:02.099Z,10.98
2022-09-07T08:25:01.969Z,7.50
2022-09-07T08:30:02.348Z,11.95
2022-09-07T08:35:02.168Z,8.43
2022-09-07T08:40:02.023Z,10.63
2022-09-07T08:45:01.868Z,10.07
2022-09-07T08:50:02.699Z,10.18
2022-09-07T08:55:02.517Z,10.65
2022-09-07T09:00:02.335Z,9.38
2022-09-07T09:05:18.517Z,10.27
2022-09-07T09:10:02.726Z,8.43
2022-09-07T09:15:02.784Z,10.95
2022-09-07T09:20:02.647Z,11.68
2022-09-07T09:25:02.607Z,12.85
2022-09-07T09:30:02.369Z,9.57
2022-09-07T09:35:02.256Z,11.13
2022-09-07T09:40:03.039Z,10.23
2022-09-07T09:45:02.065Z,11.20
2022-09-07T09:50:01.833Z,13.40
2022-09-07T09:55:23.672Z,12.80
2022-09-07T10:00:05.497Z,11.35
2022-09-07T10:05:02.089Z,11.00
2022-09-07T10:10:01.874Z,12.25
2022-09-07T10:15:02.766Z,13.07
2022-09-07T10:20:12.753Z,0
2022-09-07T10:25:03.370Z,14.30
2022-09-07T10:30:02.325Z,11.23
2022-09-07T10:35:02.247Z,12.18
2022-09-07T10:40:02.064Z,16.05
2022-09-07T10:45:01.912Z,13.05
2022-09-07T10:50:23.775Z,12.15
2022-09-07T10:55:03.396Z,13.63
2022-09-07T11:00:09.649Z,12.75
2022-09-07T11:05:01.892Z,14.90
2022-09-07T11:10:02.697Z,12.07
2022-09-07T11:15:02.499Z,12.82
2022-09-07T11:20:02.439Z,11.73
2022-09-07T11:25:30.688Z,12.75
2022-09-07T11:30:02.924Z,13.82
2022-09-07T11:35:12.669Z,0
2022-09-07T11:40:02.582Z,11.48
2022-09-07T11:45:02.442Z,13.25
2022-09-07T11:50:02.236Z,11.02
2022-09-07T11:55:02.087Z,14.40
2022-09-07T12:00:02.111Z,11.00
2022-09-07T12:05:02.009Z,11.93
2022-09-07T12:10:01.857Z,12.85
2022-09-07T12:15:12.624Z,0
2022-09-07T12:20:02.478Z,10.85
2022-09-07T12:25:02.322Z,14.20
2022-09-07T12:30:02.183Z,15.90
2022-09-07T12:35:02.299Z,10.25
2022-09-07T12:40:02.288Z,11.27
2022-09-07T12:45:02.223Z,12.85
2022-09-07T12:50:02.196Z,8.43
2022-09-07T12:55:26.534Z,0
2022-09-07T13:00:02.831Z,7.20
2022-09-07T13:05:02.764Z,5.38
2022-09-07T13:10:02.705Z,5.68
2022-09-07T13:15:02.606Z,5.18
2022-09-07T13:20:03.142Z,5.25
2022-09-07T13:25:02.304Z,4.75
2022-09-07T13:30:02.123Z,4.32
2022-09-07T13:35:01.964Z,4.90
2022-09-07T13:40:03.583Z,3.35
2022-09-07T13:45:02.395Z,3.83
2022-09-07T13:50:02.210Z,4.05
2022-09-07T13:55:02.093Z,2.70
2022-09-07T14:00:01.919Z,4.22
2022-09-07T14:05:02.748Z,2.75
2022-09-07T14:10:03.242Z,4.25
2022-09-07T14:15:05.765Z,2.30
2022-09-07T14:20:02.151Z,2.15
2022-09-07T14:25:01.997Z,2.72
2022-09-07T14:30:01.897Z,3.22
2022-09-07T14:35:02.713Z,2.20
2022-09-07T14:40:02.556Z,1.00
2022-09-07T14:45:02.391Z,2.10
2022-09-07T14:50:02.199Z,1.63
2022-09-07T14:55:01.945Z,3.15
2022-09-07T15:00:02.767Z,1.33
2022-09-07T15:05:02.547Z,1.70
2022-09-07T15:10:02.388Z,0.80
2022-09-07T15:15:02.383Z,1.30
2022-09-07T15:20:02.528Z,1.30
2022-09-07T15:25:02.486Z,3.40
2022-09-07T15:30:02.383Z,1.85
2022-09-07T15:35:02.234Z,2.00
2022-09-07T15:40:02.354Z,1.60
2022-09-07T15:45:02.476Z,1.17
2022-09-07T15:50:02.345Z,1.67
2022-09-07T15:55:02.297Z,2.78
2022-09-07T16:00:02.075Z,0.90
2022-09-07T16:05:02.028Z,1.33
2022-09-07T16:10:02.744Z,1.45
2022-09-07T16:15:02.662Z,1.23
2022-09-07T16:20:02.571Z,1.85
2022-09-07T16:25:02.404Z,1.20
2022-09-07T16:30:02.332Z,0.77
2022-09-07T16:35:02.162Z,1.58
2022-09-07T16:40:02.032Z,1.83
2022-09-07T16:50:02.606Z,0.70
2022-09-07T16:55:02.352Z,1.85
2022-09-07T17:00:02.200Z,1.27
2022-09-07T17:05:02.015Z,1.75
2022-09-07T17:10:02.160Z,1.95
2022-09-07T17:15:01.969Z,1.60
2022-09-07T17:20:01.708Z,1.90
2022-09-07T17:25:02.559Z,1.35
2022-09-07T17:30:02.403Z,0.93
2022-09-07T17:35:02.403Z,0.82
2022-09-07T17:40:05.411Z,1.73
2022-09-07T17:45:02.576Z,3.72
2022-09-07T17:50:02.380Z,1.38
2022-09-07T17:55:02.449Z,0.52
2022-09-07T18:00:11.200Z,1.23
2022-09-07T18:05:02.901Z,1.52
2022-09-07T18:10:02.902Z,1.70
2022-09-07T18:15:02.847Z,1.90
2022-09-07T18:20:02.707Z,1.15
2022-09-07T18:25:03.547Z,1.80
2022-09-07T18:30:02.478Z,2.35
2022-09-07T18:35:02.376Z,1.00
2022-09-07T18:40:02.276Z,0.82
2022-09-07T18:45:28.674Z,1.25
2022-09-07T18:50:02.601Z,0.90
2022-09-07T18:55:02.795Z,2.63
2022-09-07T19:00:03.241Z,2.10
2022-09-07T19:10:02.388Z,0.90
2022-09-07T19:15:02.348Z,1.58
2022-09-07T19:20:02.204Z,0.82
2022-09-07T19:25:02.002Z,1.58
2022-09-07T19:30:01.787Z,2.08
2022-09-07T19:35:02.820Z,2.47
2022-09-07T19:40:02.706Z,2.38
2022-09-07T19:45:02.589Z,1.50
2022-09-07T19:50:02.537Z,1.73
2022-09-07T19:55:02.348Z,1.23
2022-09-07T20:00:02.186Z,1.25
2022-09-07T20:05:01.987Z,1.23
2022-09-07T20:10:01.818Z,1.70
2022-09-07T20:15:02.593Z,3.30
2022-09-07T20:20:02.382Z,1.55
2022-09-07T20:25:02.106Z,1.92
2022-09-07T20:30:01.839Z,1.70
2022-09-07T20:35:15.565Z,2.90
2022-09-07T20:40:08.344Z,1.40
2022-09-07T20:45:08.076Z,0.75
2022-09-07T20:50:07.797Z,2.42
2022-09-07T20:55:08.478Z,1.83
2022-09-07T21:00:08.164Z,1.50
2022-09-07T21:05:07.905Z,1.23
2022-09-07T21:10:08.686Z,3.05
2022-09-07T21:15:08.399Z,1.30
2022-09-07T21:20:08.095Z,2.38
2022-09-07T21:25:07.785Z,2.03
2022-09-07T21:30:08.483Z,1.63
2022-09-07T21:35:08.160Z,2.35
2022-09-07T21:40:07.898Z,2.15
2022-09-07T21:45:08.633Z,3.03
2022-09-07T21:50:08.331Z,2.58
2022-09-07T21:55:08.069Z,3.03
2022-09-07T22:00:07.795Z,1.63
2022-09-07T22:05:08.538Z,6.60
2022-09-07T22:10:08.313Z,2.45
2022-09-07T22:15:08.020Z,6.28
2022-09-07T22:20:07.724Z,2.78
2022-09-07T22:25:08.431Z,2.10
2022-09-07T22:30:08.106Z,4.22
2022-09-07T22:35:07.788Z,1.90
2022-09-07T22:40:08.577Z,2.63
2022-09-07T22:45:08.320Z,2.30
2022-09-07T22:50:08.011Z,2.25
2022-09-07T22:55:07.717Z,2.55
2022-09-07T23:01:01.096Z,3.25
2022-09-07T23:05:07.894Z,3.95
2022-09-07T23:10:08.563Z,4.32
2022-09-07T23:15:08.246Z,5.07
2022-09-07T23:20:07.934Z,2.97
2022-09-07T23:25:08.677Z,2.45
2022-09-07T23:30:08.370Z,3.95
2022-09-07T23:35:08.065Z,1.92
2022-09-07T23:40:07.805Z,3.63
2022-09-07T23:45:08.521Z,1.98
2022-09-07T23:50:08.212Z,5.40
2022-09-07T23:55:07.930Z,2.47
